Time;durP1;ratioP1;P1;durP2;ratioP2;P2;SDS_P1;SDS_P2;PMS_P1;PMS_P2;Temp;Humidity;BMP_temperature;BMP_pressure;BME280_temperature;BME280_humidity;BME280_pressure;Samples;Min_cycle;Max_cycle;Signal;HPM_P1;HPM_P2
2021/10/30 00:00:17;;;;;;;12.15;8.13;;;;;;;11.63;89.33;100590.69;4836585;29;20037;-83
2021/10/30 00:02:42;;;;;;;12.50;8.60;;;;;;;11.64;89.25;100597.63;4851277;29;20041;-82
2021/10/30 00:05:09;;;;;;;9.93;7.70;;;;;;;11.65;89.37;100594.06;4851962;29;20029;-83
2021/10/30 00:07:35;;;;;;;10.75;8.15;;;;;;;11.66;89.13;100596.63;4851485;29;20104;-82
2021/10/30 00:10:03;;;;;;;11.27;8.35;;;;;;;11.67;89.10;100594.84;4852310;29;20086;-83
2021/10/30 00:12:28;;;;;;;9.05;7.45;;;;;;;11.67;89.04;100602.72;4836051;29;20037;-83
2021/10/30 00:14:53;;;;;;;11.85;8.18;;;;;;;11.68;89.17;100600.03;4851544;29;20037;-83
2021/10/30 00:17:19;;;;;;;12.30;8.43;;;;;;;11.69;89.25;100601.69;4851613;29;20263;-83
2021/10/30 00:19:44;;;;;;;11.07;7.85;;;;;;;11.71;89.03;100599.00;4852111;29;20086;-83
2021/10/30 00:22:10;;;;;;;10.98;7.45;;;;;;;11.71;88.76;100592.00;4863145;29;20048;-83
2021/10/30 00:24:36;;;;;;;11.73;7.43;;;;;;;11.72;88.54;100600.72;4834128;29;20045;-83
2021/10/30 00:27:05;;;;;;;9.45;6.82;;;;;;;11.72;88.60;100604.19;4857845;29;20049;-83
2021/10/30 00:29:31;;;;;;;8.30;6.70;;;;;;;11.74;88.55;100608.53;4866803;29;20056;-83
2021/10/30 00:31:56;;;;;;;10.95;7.38;;;;;;;11.76;88.31;100611.91;4851863;29;20045;-83
2021/10/30 00:34:22;;;;;;;8.45;6.88;;;;;;;11.75;88.15;100603.22;4820835;29;20286;-83
2021/10/30 00:36:51;;;;;;;7.43;6.45;;;;;;;11.76;88.32;100599.63;4849649;29;20090;-82
2021/10/30 00:39:17;;;;;;;13.05;6.32;;;;;;;11.77;88.47;100598.72;4818634;29;20045;-82
2021/10/30 00:41:49;;;;;;;10.35;7.07;;;;;;;11.78;88.25;100589.06;4853678;29;20029;-83
2021/10/30 00:44:14;;;;;;;7.53;6.28;;;;;;;11.79;88.43;100586.38;4833007;29;20038;-83
2021/10/30 00:46:41;;;;;;;7.57;6.43;;;;;;;11.79;88.04;100582.88;4820979;29;20044;-83
2021/10/30 00:49:08;;;;;;;11.77;8.27;;;;;;;11.79;88.08;100586.38;4851820;29;20041;-83
2021/10/30 00:51:34;;;;;;;12.63;7.75;;;;;;;11.79;88.09;100581.13;4850758;29;20355;-83
2021/10/30 00:54:00;;;;;;;8.52;7.22;;;;;;;11.81;87.96;100575.81;4838161;29;20036;-83
2021/10/30 00:56:25;;;;;;;13.40;8.80;;;;;;;11.80;88.26;100568.84;4839592;29;20041;-83
2021/10/30 00:58:51;;;;;;;11.15;8.18;;;;;;;11.81;88.01;100565.31;4855190;29;20146;-83
2021/10/30 01:01:16;;;;;;;9.38;7.82;;;;;;;11.81;87.92;100571.41;4854919;29;20341;-83
2021/10/30 01:03:44;;;;;;;11.30;8.02;;;;;;;11.80;87.84;100567.06;4854350;29;20154;-83
2021/10/30 01:06:09;;;;;;;10.25;7.72;;;;;;;11.80;88.03;100564.44;4871173;29;20053;-83
2021/10/30 01:08:35;;;;;;;9.40;8.43;;;;;;;11.80;88.14;100558.34;4838702;29;20071;-83
2021/10/30 01:11:01;;;;;;;10.93;7.97;;;;;;;11.80;88.09;100555.72;4836495;29;20064;-82
2021/10/30 01:13:27;;;;;;;11.38;8.27;;;;;;;11.80;87.94;100560.97;4851585;29;20097;-83
2021/10/30 01:15:52;;;;;;;11.30;9.20;;;;;;;11.80;88.09;100563.59;4821435;29;20026;-83
2021/10/30 01:18:18;;;;;;;12.45;9.18;;;;;;;11.80;88.03;100559.19;4855183;29;20055;-83
2021/10/30 01:20:43;;;;;;;10.68;9.57;;;;;;;11.78;88.07;100561.06;4855100;29;20356;-83
2021/10/30 01:23:09;;;;;;;11.68;9.23;;;;;;;11.79;88.38;100564.53;4854295;29;20053;-83
2021/10/30 01:25:34;;;;;;;17.63;9.25;;;;;;;11.78;88.29;100558.44;4854490;29;20355;-83
2021/10/30 01:28:00;;;;;;;13.45;10.18;;;;;;;11.78;88.23;100553.19;4838848;29;20044;-83
2021/10/30 01:30:25;;;;;;;17.77;10.05;;;;;;;11.78;88.22;100552.34;4870588;29;20061;-83
2021/10/30 01:32:58;;;;;;;11.40;9.43;;;;;;;11.77;88.62;100542.75;4870745;29;20555;-83
2021/10/30 01:35:26;;;;;;;11.20;9.10;;;;;;;11.76;88.36;100547.16;4838816;29;20037;-82
2021/10/30 01:37:51;;;;;;;13.40;9.68;;;;;;;11.76;88.67;100546.34;4835818;29;20045;-83
2021/10/30 01:40:17;;;;;;;12.68;8.48;;;;;;;11.76;88.55;100548.94;4860284;29;20536;-83
2021/10/30 01:42:42;;;;;;;8.60;7.47;;;;;;;11.74;88.74;100542.94;4853817;29;20080;-83
2021/10/30 01:45:08;;;;;;;10.13;7.47;;;;;;;11.74;88.67;100535.06;4838236;29;20031;-83
2021/10/30 01:47:34;;;;;;;10.77;7.95;;;;;;;11.74;88.58;100535.06;4835045;29;20042;-83
2021/10/30 01:49:59;;;;;;;6.38;5.85;;;;;;;11.71;88.67;100530.81;4836268;29;20381;-83
2021/10/30 01:52:24;;;;;;;9.95;7.20;;;;;;;11.69;88.80;100530.88;4837940;29;20030;-83
2021/10/30 01:54:50;;;;;;;7.15;6.50;;;;;;;11.67;88.60;100535.34;4838686;29;20045;-83
2021/10/30 01:57:15;;;;;;;6.20;5.60;;;;;;;11.67;88.78;100524.03;4838012;29;20121;-83
2021/10/30 01:59:41;;;;;;;6.53;5.93;;;;;;;11.66;88.99;100522.31;4870174;29;20044;-83
2021/10/30 02:02:06;;;;;;;8.02;5.90;;;;;;;11.64;88.74;100518.91;4854209;29;20081;-83
2021/10/30 02:04:32;;;;;;;7.95;6.00;;;;;;;11.63;88.50;100512.84;4853237;29;20068;-82
2021/10/30 02:06:57;;;;;;;7.97;6.80;;;;;;;11.60;88.60;100494.63;4849758;29;20054;-83
2021/10/30 02:09:23;;;;;;;7.32;6.32;;;;;;;11.58;88.62;100493.84;4868236;29;20361;-83
2021/10/30 02:11:48;;;;;;;6.40;5.90;;;;;;;11.53;88.71;100491.47;4853756;29;20043;-82
2021/10/30 02:14:14;;;;;;;7.03;6.38;;;;;;;11.51;88.72;100492.47;4849793;29;20069;-82
2021/10/30 02:16:39;;;;;;;10.63;6.97;;;;;;;11.46;89.08;100481.34;4864766;29;20061;-82
2021/10/30 02:19:05;;;;;;;7.90;6.63;;;;;;;11.45;88.86;100495.41;4865439;29;20063;-82
2021/10/30 02:21:30;;;;;;;11.70;7.43;;;;;;;11.43;89.34;100486.78;4864517;29;20040;-82
2021/10/30 02:23:56;;;;;;;8.35;7.35;;;;;;;11.42;89.16;100483.28;4865087;29;20045;-82
2021/10/30 02:26:21;;;;;;;8.30;7.32;;;;;;;11.41;89.22;100465.88;4865155;29;20045;-82
2021/10/30 02:28:47;;;;;;;8.77;7.53;;;;;;;11.39;89.55;100459.84;4864979;29;20089;-82
2021/10/30 02:31:12;;;;;;;7.97;6.97;;;;;;;11.38;89.22;100442.41;4864944;29;20053;-82
2021/10/30 02:33:38;;;;;;;12.75;7.50;;;;;;;11.34;89.55;100440.88;4864376;29;20049;-82
2021/10/30 02:36:03;;;;;;;9.00;7.18;;;;;;;11.33;89.47;100433.91;4848186;29;20037;-82
2021/10/30 02:38:29;;;;;;;7.47;6.78;;;;;;;11.30;89.88;100432.31;4863840;29;20304;-82
2021/10/30 02:40:54;;;;;;;11.27;7.65;;;;;;;11.28;89.63;100439.41;4865216;29;20041;-82
2021/10/30 02:43:20;;;;;;;7.90;7.10;;;;;;;11.26;89.79;100429.91;4847509;29;20241;-82
2021/10/30 02:45:45;;;;;;;9.00;7.10;;;;;;;11.24;90.00;100423.91;4848466;29;20045;-82
2021/10/30 02:48:11;;;;;;;13.70;7.60;;;;;;;11.24;90.29;100423.91;4864656;29;20077;-82
2021/10/30 02:50:36;;;;;;;11.70;8.00;;;;;;;11.23;90.91;100420.44;4864055;29;20064;-82
2021/10/30 02:53:02;;;;;;;9.90;7.60;;;;;;;11.24;90.42;100413.41;4853522;29;20041;-82
2021/10/30 02:55:27;;;;;;;8.23;7.30;;;;;;;11.24;90.37;100410.78;4829251;29;20049;-83
2021/10/30 02:57:53;;;;;;;9.65;7.70;;;;;;;11.26;90.43;100398.47;4861693;29;20052;-82
2021/10/30 03:00:18;;;;;;;8.45;7.53;;;;;;;11.27;90.64;100389.69;4863883;29;20085;-81
2021/10/30 03:02:44;;;;;;;9.57;7.32;;;;;;;11.27;90.54;100387.06;4864052;29;20041;-81
2021/10/30 03:05:09;;;;;;;13.23;8.20;;;;;;;11.27;90.86;100379.19;4847222;29;20222;-80
2021/10/30 03:07:35;;;;;;;8.63;7.38;;;;;;;11.25;90.75;100384.50;4856011;29;20333;-81
2021/10/30 03:10:00;;;;;;;8.00;7.03;;;;;;;11.26;90.76;100380.09;4827764;29;20044;-81
2021/10/30 03:12:26;;;;;;;9.02;8.15;;;;;;;11.25;90.85;100379.25;4847475;29;20116;-81
2021/10/30 03:14:51;;;;;;;7.88;7.28;;;;;;;11.26;91.09;100364.38;4864366;29;20045;-81
2021/10/30 03:17:17;;;;;;;9.85;7.82;;;;;;;11.27;91.16;100360.84;4847116;29;20049;-81
2021/10/30 03:19:42;;;;;;;9.85;7.47;;;;;;;11.27;91.15;100353.81;4863686;29;20068;-81
2021/10/30 03:22:08;;;;;;;11.57;8.02;;;;;;;11.27;91.12;100361.69;4846940;29;20077;-81
2021/10/30 03:24:35;;;;;;;11.10;7.78;;;;;;;11.26;91.24;100360.00;4831881;29;20277;-81
2021/10/30 03:27:00;;;;;;;9.45;7.70;;;;;;;11.29;91.17;100359.00;4847837;29;20138;-81
2021/10/30 03:29:25;;;;;;;11.35;7.97;;;;;;;11.29;91.14;100365.06;4846735;29;20041;-81
2021/10/30 03:31:51;;;;;;;7.93;7.13;;;;;;;11.28;91.61;100350.28;4847535;29;20360;-81
2021/10/30 03:34:16;;;;;;;10.18;7.78;;;;;;;11.29;91.50;100354.59;4847543;29;20085;-81
2021/10/30 03:36:42;;;;;;;9.88;7.18;;;;;;;11.28;91.47;100350.28;4845606;29;20041;-81
2021/10/30 03:39:07;;;;;;;10.02;8.32;;;;;;;11.28;91.45;100347.66;4823982;29;20041;-81
2021/10/30 03:41:33;;;;;;;9.32;7.65;;;;;;;11.28;91.86;100349.44;4863757;29;20065;-81
2021/10/30 03:43:58;;;;;;;10.10;7.38;;;;;;;11.27;91.70;100343.34;4846902;29;20044;-81
2021/10/30 03:46:24;;;;;;;8.57;7.68;;;;;;;11.27;91.95;100347.75;4831984;29;20388;-81
2021/10/30 03:48:49;;;;;;;10.85;7.57;;;;;;;11.27;92.02;100343.34;4847040;29;20049;-81
2021/10/30 03:51:15;;;;;;;11.80;8.52;;;;;;;11.28;91.99;100336.34;4831910;29;20279;-81
2021/10/30 03:53:40;;;;;;;10.73;8.80;;;;;;;11.27;92.03;100338.09;4830525;29;20238;-81
2021/10/30 03:56:05;;;;;;;9.50;8.00;;;;;;;11.26;91.90;100341.66;4846123;29;20056;-81
2021/10/30 03:58:31;;;;;;;7.85;7.25;;;;;;;11.25;92.20;100331.25;4846409;29;20390;-81
2021/10/30 04:00:57;;;;;;;8.80;7.90;;;;;;;11.24;92.10;100316.44;4832151;29;20336;-81
2021/10/30 04:03:22;;;;;;;10.88;8.13;;;;;;;11.24;92.23;100313.81;4831544;29;20045;-81
2021/10/30 04:05:47;;;;;;;8.95;8.10;;;;;;;11.21;92.36;100314.84;4863211;29;20297;-81
2021/10/30 04:08:18;;;;;;;9.13;7.97;;;;;;;11.21;92.15;100312.22;4863163;29;20408;-81
2021/10/30 04:10:43;;;;;;;11.05;8.27;;;;;;;11.21;92.29;100316.63;4847283;29;20042;-81
2021/10/30 04:13:09;;;;;;;10.90;8.25;;;;;;;11.21;92.59;100314.84;4846894;29;20116;-81
2021/10/30 04:15:34;;;;;;;12.13;7.93;;;;;;;11.22;92.46;100311.25;4830790;29;20041;-81
2021/10/30 04:18:00;;;;;;;8.80;7.90;;;;;;;11.24;92.63;100311.19;4847023;29;20069;-81
2021/10/30 04:20:25;;;;;;;11.48;8.07;;;;;;;11.25;92.59;100302.41;4845910;29;20041;-81
2021/10/30 04:22:51;;;;;;;10.43;7.72;;;;;;;11.25;92.77;100302.41;4821678;29;20045;-81
2021/10/30 04:25:16;;;;;;;11.27;7.55;;;;;;;11.25;92.71;100298.00;4835929;29;20053;-81
2021/10/30 04:27:41;;;;;;;14.95;7.82;;;;;;;11.26;92.76;100294.47;4863039;29;20217;-81
2021/10/30 04:30:07;;;;;;;16.70;7.88;;;;;;;11.27;92.62;100293.53;4849707;29;20089;-81
2021/10/30 04:32:33;;;;;;;12.07;7.65;;;;;;;11.27;92.89;100293.53;4867191;29;20044;-81
2021/10/30 04:35:04;;;;;;;9.80;8.23;;;;;;;11.26;93.27;100277.88;4850332;29;20029;-81
2021/10/30 04:37:30;;;;;;;11.88;7.97;;;;;;;11.25;93.36;100274.41;4865179;29;20045;-81
2021/10/30 04:39:55;;;;;;;8.70;7.85;;;;;;;11.26;93.60;100270.00;4866993;29;20037;-81
2021/10/30 04:42:21;;;;;;;9.82;8.32;;;;;;;11.25;93.56;100263.09;4850056;29;20376;-81
2021/10/30 04:44:46;;;;;;;9.23;8.32;;;;;;;11.25;93.65;100265.72;4850288;29;20052;-81
2021/10/30 04:47:18;;;;;;;8.75;7.95;;;;;;;11.24;94.02;100258.78;4850064;29;20041;-81
2021/10/30 04:49:44;;;;;;;8.70;7.80;;;;;;;11.23;93.82;100257.09;4820169;29;20342;-81
2021/10/30 04:52:10;;;;;;;8.88;8.00;;;;;;;11.23;94.18;100249.22;4829989;29;20033;-81
2021/10/30 04:54:35;;;;;;;11.82;8.48;;;;;;;11.21;94.25;100251.94;4831382;29;20367;-81
2021/10/30 04:57:01;;;;;;;8.95;8.10;;;;;;;11.22;94.60;100248.34;4848159;29;20041;-81
2021/10/30 04:59:26;;;;;;;13.73;9.07;;;;;;;11.24;94.53;100245.66;4849772;29;20041;-81
2021/10/30 05:01:52;;;;;;;9.85;8.52;;;;;;;11.25;94.66;100239.50;4849803;29;20053;-81
2021/10/30 05:04:17;;;;;;;9.63;8.48;;;;;;;11.24;94.81;100237.81;4849967;29;20046;-81
2021/10/30 05:06:43;;;;;;;13.73;8.40;;;;;;;11.23;94.83;100242.19;4848965;29;20057;-81
2021/10/30 05:09:08;;;;;;;10.40;8.80;;;;;;;11.25;95.13;100236.88;4849772;29;20537;-80
2021/10/30 05:11:33;;;;;;;9.30;8.35;;;;;;;11.26;95.00;100231.56;4866023;29;20058;-81
2021/10/30 05:13:59;;;;;;;12.32;9.00;;;;;;;11.27;95.07;100227.16;4850103;29;20046;-81
2021/10/30 05:16:25;;;;;;;10.52;8.43;;;;;;;11.27;95.44;100238.47;4865642;29;20096;-81
2021/10/30 05:18:50;;;;;;;11.48;9.13;;;;;;;11.27;95.49;100219.28;4849720;29;20033;-81
2021/10/30 05:21:16;;;;;;;11.23;8.90;;;;;;;11.26;95.53;100218.47;4865604;29;20233;-81
2021/10/30 05:23:42;;;;;;;9.68;8.68;;;;;;;11.28;95.50;100221.00;4865538;29;20050;-81
2021/10/30 05:26:07;;;;;;;12.18;9.40;;;;;;;11.28;95.49;100213.97;4866002;29;20368;-81
2021/10/30 05:28:33;;;;;;;11.88;8.85;;;;;;;11.29;95.41;100212.19;4848543;29;20049;-81
2021/10/30 05:30:58;;;;;;;17.02;9.38;;;;;;;11.29;95.81;100217.44;4849397;29;20049;-81
2021/10/30 05:33:23;;;;;;;11.13;8.73;;;;;;;11.30;95.53;100209.50;4849130;29;20049;-81
2021/10/30 05:35:49;;;;;;;9.32;8.48;;;;;;;11.30;95.67;100206.03;4834118;29;20045;-81
2021/10/30 05:38:16;;;;;;;9.27;7.70;;;;;;;11.30;95.43;100196.38;4848984;29;20029;-81
2021/10/30 05:40:41;;;;;;;13.80;8.75;;;;;;;11.30;95.69;100191.16;4848016;29;20049;-81
2021/10/30 05:43:07;;;;;;;11.48;8.38;;;;;;;11.30;95.83;100185.91;4849116;29;20049;-81
2021/10/30 05:45:32;;;;;;;17.13;9.02;;;;;;;11.30;95.56;100185.06;4848351;29;20073;-81
2021/10/30 05:47:58;;;;;;;10.88;8.07;;;;;;;11.30;95.81;100179.81;4849479;29;20371;-81
2021/10/30 05:50:23;;;;;;;9.82;8.82;;;;;;;11.28;95.82;100177.28;4848780;29;20037;-81
2021/10/30 05:52:49;;;;;;;10.05;8.50;;;;;;;11.30;95.68;100170.19;4849130;29;20093;-81
2021/10/30 05:55:14;;;;;;;10.82;8.25;;;;;;;11.29;95.58;100163.22;4865810;29;20085;-81
2021/10/30 05:57:39;;;;;;;17.23;8.70;;;;;;;11.29;95.44;100155.38;4848464;29;20037;-81
2021/10/30 06:00:05;;;;;;;12.60;8.63;;;;;;;11.29;95.56;100167.63;4849072;29;20071;-81
2021/10/30 06:02:31;;;;;;;9.30;8.05;;;;;;;11.29;95.94;100183.34;4848285;29;20357;-81
2021/10/30 06:04:56;;;;;;;10.07;7.55;;;;;;;11.29;95.83;100173.72;4849043;29;20099;-81
2021/10/30 06:07:22;;;;;;;10.75;8.45;;;;;;;11.29;95.84;100163.22;4826269;29;20058;-81
2021/10/30 06:09:48;;;;;;;14.30;8.88;;;;;;;11.29;95.87;100160.59;4847138;29;20361;-81
2021/10/30 06:12:13;;;;;;;16.55;8.80;;;;;;;11.28;96.05;100155.47;4855524;29;20051;-81
2021/10/30 06:14:39;;;;;;;10.18;8.18;;;;;;;11.27;95.93;100161.63;4848393;29;20045;-81
2021/10/30 06:17:05;;;;;;;8.73;7.82;;;;;;;11.27;95.92;100178.19;4865132;29;20053;-81
2021/10/30 06:19:30;;;;;;;10.15;8.95;;;;;;;11.28;95.78;100184.31;4833047;29;20049;-80
2021/10/30 06:21:56;;;;;;;12.45;8.55;;;;;;;11.28;95.91;100177.28;4845433;29;20135;-81
2021/10/30 06:24:21;;;;;;;11.68;9.02;;;;;;;11.28;96.24;100161.56;4829961;29;20046;-81
2021/10/30 06:26:47;;;;;;;11.20;8.93;;;;;;;11.27;96.10;100169.50;4835584;29;20045;-81
2021/10/30 06:29:12;;;;;;;12.32;8.77;;;;;;;11.27;96.21;100167.72;4833357;29;20257;-81
2021/10/30 06:31:38;;;;;;;9.82;8.38;;;;;;;11.28;96.31;100165.97;4864309;29;20047;-81
2021/10/30 06:34:03;;;;;;;11.57;8.25;;;;;;;11.28;96.46;100161.56;4846335;29;20285;-81
2021/10/30 06:36:29;;;;;;;10.93;8.95;;;;;;;11.28;96.35;100161.56;4864114;29;20041;-81
2021/10/30 06:38:54;;;;;;;12.32;8.57;;;;;;;11.28;96.19;100151.06;4848205;29;20057;-80
2021/10/30 06:41:20;;;;;;;16.15;8.52;;;;;;;11.29;96.21;100154.53;4882194;29;20028;-81
2021/10/30 06:43:45;;;;;;;12.18;9.25;;;;;;;11.29;96.47;100151.91;4860690;29;20225;-81
2021/10/30 06:46:10;;;;;;;10.93;8.43;;;;;;;11.29;96.49;100150.13;4866614;29;20041;-81
2021/10/30 06:48:37;;;;;;;9.85;8.38;;;;;;;11.29;96.35;100152.75;4848888;29;20049;-81
2021/10/30 06:51:04;;;;;;;14.65;9.23;;;;;;;11.29;96.35;100139.63;4856382;29;20045;-80
2021/10/30 06:53:29;;;;;;;10.50;8.68;;;;;;;11.29;96.32;100128.31;4875207;29;20045;-81
2021/10/30 06:55:56;;;;;;;10.07;8.73;;;;;;;11.28;96.35;100132.72;4848668;29;20273;-81
2021/10/30 06:58:21;;;;;;;14.60;8.65;;;;;;;11.27;96.59;100123.16;4836373;29;20041;-81
2021/10/30 07:00:47;;;;;;;11.38;8.48;;;;;;;11.27;96.58;100115.28;4860859;29;20047;-80
2021/10/30 07:03:13;;;;;;;9.52;8.13;;;;;;;11.28;96.28;100105.66;4835851;29;20068;-81
2021/10/30 07:05:39;;;;;;;12.70;9.13;;;;;;;11.28;96.33;100113.53;4840249;29;20085;-81
2021/10/30 07:08:05;;;;;;;11.32;9.18;;;;;;;11.28;96.39;100118.78;4828903;29;20049;-81
2021/10/30 07:10:30;;;;;;;16.88;8.80;;;;;;;11.27;96.41;100115.28;4841784;29;20037;-80
2021/10/30 07:12:56;;;;;;;13.77;8.45;;;;;;;11.28;96.66;100109.13;4872472;29;20088;-81
2021/10/30 07:15:21;;;;;;;14.02;9.13;;;;;;;11.29;96.41;100091.63;4853507;29;20041;-81
2021/10/30 07:17:47;;;;;;;15.57;8.63;;;;;;;11.29;96.40;100094.25;4842271;29;20349;-81
2021/10/30 07:20:12;;;;;;;11.90;8.77;;;;;;;11.28;96.36;100113.53;4866475;29;20221;-81
2021/10/30 07:22:48;;;;;;;10.65;8.70;;;;;;;11.27;96.52;100119.69;4838546;29;20042;-81
2021/10/30 07:25:14;;;;;;;13.38;8.90;;;;;;;11.28;96.51;100111.75;4836835;29;20236;-80
2021/10/30 07:27:39;;;;;;;9.77;8.20;;;;;;;11.28;96.28;100097.81;4844717;29;20052;-82
2021/10/30 07:30:06;;;;;;;20.27;8.80;;;;;;;11.26;96.14;100097.88;4854425;29;20037;-81
2021/10/30 07:32:31;;;;;;;12.48;9.25;;;;;;;11.27;96.39;100088.25;4820105;29;20275;-81
2021/10/30 07:34:57;;;;;;;14.90;8.57;;;;;;;11.27;96.30;100094.31;4861291;29;20039;-81
2021/10/30 07:37:22;;;;;;;12.02;9.07;;;;;;;11.27;96.61;100085.63;4869747;29;20037;-81
2021/10/30 07:39:48;;;;;;;14.23;9.02;;;;;;;11.28;96.56;100092.56;4858761;29;20045;-81
2021/10/30 07:42:13;;;;;;;10.27;8.40;;;;;;;11.29;96.58;100099.47;4842145;29;20038;-80
2021/10/30 07:44:39;;;;;;;15.32;8.93;;;;;;;11.27;96.62;100083.84;4863745;29;20041;-80
2021/10/30 07:47:05;;;;;;;11.23;8.35;;;;;;;11.28;96.66;100087.31;4841631;29;20046;-81
2021/10/30 07:49:30;;;;;;;10.30;8.68;;;;;;;11.28;96.31;100076.84;4838156;29;20040;-80
2021/10/30 07:51:56;;;;;;;10.50;8.73;;;;;;;11.29;96.38;100078.50;4871627;29;20379;-80
2021/10/30 07:54:22;;;;;;;15.02;9.13;;;;;;;11.30;96.32;100080.22;4847312;29;20045;-80
2021/10/30 07:56:47;;;;;;;12.38;8.68;;;;;;;11.29;96.44;100076.72;4863854;29;20041;-80
2021/10/30 07:59:12;;;;;;;11.27;8.48;;;;;;;11.30;96.52;100070.56;4841180;29;20080;-80
2021/10/30 08:01:38;;;;;;;10.38;8.65;;;;;;;11.32;96.46;100070.47;4876267;29;20368;-80
2021/10/30 08:04:04;;;;;;;16.20;8.93;;;;;;;11.31;96.58;100069.66;4848676;29;20045;-80
2021/10/30 08:06:30;;;;;;;11.27;8.43;;;;;;;11.31;96.47;100074.88;4863497;29;20079;-80
2021/10/30 08:08:55;;;;;;;10.20;8.90;;;;;;;11.33;96.64;100065.16;4863495;29;20116;-80
2021/10/30 08:11:21;;;;;;;10.00;8.65;;;;;;;11.34;96.53;100063.38;4865415;29;20112;-80
2021/10/30 08:13:46;;;;;;;9.70;8.65;;;;;;;11.36;96.49;100063.28;4863866;29;20056;-80
2021/10/30 08:16:12;;;;;;;11.55;8.10;;;;;;;11.34;96.67;100072.06;4864155;29;20043;-80
2021/10/30 08:18:37;;;;;;;9.32;8.43;;;;;;;11.36;96.64;100065.91;4842223;29;20290;-80
2021/10/30 08:21:02;;;;;;;11.00;8.75;;;;;;;11.38;96.76;100069.28;4837306;29;20341;-80
2021/10/30 08:23:28;;;;;;;11.02;8.10;;;;;;;11.38;96.80;100072.75;4823239;29;20053;-80
2021/10/30 08:25:53;;;;;;;11.27;8.07;;;;;;;11.38;96.54;100075.38;4841859;29;20333;-80
2021/10/30 08:28:19;;;;;;;10.70;7.20;;;;;;;11.40;96.85;100080.53;4838965;29;20062;-80
2021/10/30 08:30:45;;;;;;;13.60;7.32;;;;;;;11.41;96.67;100083.06;4840115;29;20357;-80
2021/10/30 08:33:11;;;;;;;7.28;6.57;;;;;;;11.42;96.80;100073.41;4852253;29;20333;-80
2021/10/30 08:35:37;;;;;;;9.80;6.88;;;;;;;11.45;96.74;100068.00;4831325;29;20064;-80
2021/10/30 08:38:02;;;;;;;10.68;7.00;;;;;;;11.44;96.86;100061.06;4862623;29;20375;-80
2021/10/30 08:40:28;;;;;;;12.73;8.00;;;;;;;11.45;96.72;100058.38;4848964;29;20041;-80
2021/10/30 08:42:53;;;;;;;16.77;7.22;;;;;;;11.48;97.01;100062.59;4854476;29;20396;-80
2021/10/30 08:45:20;;;;;;;8.43;7.13;;;;;;;11.49;96.87;100054.63;4849270;29;20041;-80
2021/10/30 08:47:46;;;;;;;7.03;6.32;;;;;;;11.49;96.82;100054.63;4838358;29;20352;-80
2021/10/30 08:50:12;;;;;;;7.53;6.82;;;;;;;11.49;96.87;100052.00;4853103;29;20068;-80
2021/10/30 08:52:38;;;;;;;9.85;7.32;;;;;;;11.49;96.50;100062.50;4840899;29;20252;-80
2021/10/30 08:55:07;;;;;;;7.70;6.90;;;;;;;11.50;96.68;100048.47;4851767;29;20046;-80
2021/10/30 08:57:33;;;;;;;7.13;6.53;;;;;;;11.49;96.64;100048.53;4849023;29;20378;-80
2021/10/30 09:00:19;;;;;;;10.65;7.05;;;;;;;11.50;96.60;100048.47;4847056;29;20037;-80
2021/10/30 09:02:44;;;;;;;7.78;6.63;;;;;;;11.51;96.73;100055.41;4848618;29;20068;-80
2021/10/30 09:05:11;;;;;;;8.07;6.85;;;;;;;11.51;97.14;100049.31;4867689;29;20512;-80
2021/10/30 09:07:37;;;;;;;10.48;6.75;;;;;;;11.52;96.69;100054.47;4832152;29;20111;-80
2021/10/30 09:10:16;;;;;;;7.18;6.20;;;;;;;11.52;97.01;100041.34;4854847;29;20037;-80
2021/10/30 09:12:52;;;;;;;11.52;7.75;;;;;;;11.52;96.85;100043.13;4849091;29;20068;-80
2021/10/30 09:15:20;;;;;;;7.68;6.78;;;;;;;11.53;97.08;100044.81;4853224;29;20297;-80
2021/10/30 09:17:47;;;;;;;8.70;7.45;;;;;;;11.53;97.33;100036.94;4852311;29;20064;-80
2021/10/30 09:20:15;;;;;;;9.52;7.10;;;;;;;11.53;97.33;100039.56;4849991;29;20050;-80
2021/10/30 09:22:40;;;;;;;11.20;7.18;;;;;;;11.55;97.23;100034.25;4853949;29;20048;-80
2021/10/30 09:25:07;;;;;;;11.60;7.82;;;;;;;11.54;97.24;100028.16;4860324;29;20041;-80
2021/10/30 09:27:45;;;;;;;8.20;7.38;;;;;;;11.54;97.54;100025.53;4850058;29;20041;-80
2021/10/30 09:30:12;;;;;;;16.33;7.45;;;;;;;11.55;97.53;100029.84;4855011;29;20041;-80
2021/10/30 09:32:37;;;;;;;10.30;7.88;;;;;;;11.57;97.37;100035.00;4880692;29;20152;-80
2021/10/30 09:35:03;;;;;;;9.82;7.53;;;;;;;11.56;97.60;100028.91;4870500;29;20334;-80
2021/10/30 09:37:32;;;;;;;11.45;7.07;;;;;;;11.57;97.79;100028.00;4865942;29;20033;-80
2021/10/30 09:40:20;;;;;;;11.23;7.95;;;;;;;11.57;97.62;100029.75;4855939;29;20114;-80
2021/10/30 09:43:18;;;;;;;9.60;7.50;;;;;;;11.58;97.80;100024.41;4835314;29;20100;-80
2021/10/30 09:46:04;;;;;;;12.98;7.28;;;;;;;11.59;97.72;100028.75;4864826;29;20061;-80
2021/10/30 09:48:32;;;;;;;10.00;7.53;;;;;;;11.60;97.93;100026.97;4853668;29;20100;-80
2021/10/30 09:50:58;;;;;;;10.77;7.18;;;;;;;11.62;97.78;100025.09;4853416;29;20326;-80
2021/10/30 09:53:38;;;;;;;12.68;8.18;;;;;;;11.62;97.61;100027.72;4842149;29;20348;-80
2021/10/30 09:56:04;;;;;;;10.18;7.43;;;;;;;11.62;97.57;100025.91;4870894;29;20041;-80
2021/10/30 09:58:35;;;;;;;7.55;6.85;;;;;;;11.63;97.90;100022.38;4865839;29;20045;-80
2021/10/30 10:01:01;;;;;;;8.27;7.32;;;;;;;11.63;97.65;100022.38;4855730;29;20352;-80
2021/10/30 10:03:27;;;;;;;10.00;7.72;;;;;;;11.64;97.85;100025.84;4858995;29;20040;-80
2021/10/30 10:05:55;;;;;;;8.23;7.40;;;;;;;11.65;97.82;100020.50;4833807;29;20057;-80
2021/10/30 10:08:20;;;;;;;10.52;7.68;;;;;;;11.68;97.83;100022.13;4838298;29;20033;-80
2021/10/30 10:10:46;;;;;;;8.07;6.65;;;;;;;11.70;98.11;100017.63;4850072;29;20048;-80
2021/10/30 10:13:11;;;;;;;8.27;7.28;;;;;;;11.72;97.58;100013.97;4854287;29;20114;-80
2021/10/30 10:15:41;;;;;;;7.93;7.07;;;;;;;11.74;98.12;100013.06;4852564;29;20044;-81
2021/10/30 10:18:06;;;;;;;8.55;7.68;;;;;;;11.76;98.12;100009.38;4844871;29;20030;-80
2021/10/30 10:20:32;;;;;;;7.95;7.00;;;;;;;11.77;97.98;100015.47;4865038;29;20267;-80
2021/10/30 10:22:58;;;;;;;7.72;6.85;;;;;;;11.76;98.15;100021.66;4830289;29;20268;-80
2021/10/30 10:25:27;;;;;;;7.25;6.53;;;;;;;11.77;98.16;100018.09;4837564;29;20029;-80
2021/10/30 10:27:54;;;;;;;7.22;6.53;;;;;;;11.77;97.99;100012.84;4850854;29;20264;-80
2021/10/30 10:30:20;;;;;;;9.57;7.28;;;;;;;11.78;98.24;100011.94;4834354;29;20033;-81
2021/10/30 10:32:45;;;;;;;7.63;6.82;;;;;;;11.78;98.06;100002.28;4865188;29;20055;-80
2021/10/30 10:35:15;;;;;;;8.70;6.78;;;;;;;11.79;98.14;100000.47;4869837;29;20232;-80
2021/10/30 10:37:50;;;;;;;8.20;7.40;;;;;;;11.80;98.16;100004.81;4834548;29;20052;-80
2021/10/30 10:40:31;;;;;;;8.15;6.53;;;;;;;11.82;98.05;99987.19;4838704;29;20045;-80
2021/10/30 10:42:57;;;;;;;7.78;6.97;;;;;;;11.82;98.29;99987.19;4856557;29;20052;-80
2021/10/30 10:45:22;;;;;;;11.32;7.72;;;;;;;11.84;97.91;99985.31;4848173;29;20241;-80
2021/10/30 10:47:54;;;;;;;9.20;7.10;;;;;;;11.85;98.24;99982.63;4857906;29;20053;-81
2021/10/30 10:50:29;;;;;;;7.57;6.57;;;;;;;11.85;98.09;99987.84;4863792;29;20051;-80
2021/10/30 10:53:01;;;;;;;9.30;7.30;;;;;;;11.85;98.13;99985.22;4868681;29;20237;-81
2021/10/30 10:55:28;;;;;;;7.60;6.95;;;;;;;11.86;98.37;99981.69;4856279;29;20033;-80
2021/10/30 10:57:58;;;;;;;7.15;6.45;;;;;;;11.87;98.42;99988.59;4831642;29;20056;-80
2021/10/30 11:00:24;;;;;;;8.07;7.25;;;;;;;11.89;98.19;99978.03;4842751;29;20364;-80
2021/10/30 11:02:49;;;;;;;12.15;7.43;;;;;;;11.89;98.35;99973.63;4855455;29;20056;-80
2021/10/30 11:05:17;;;;;;;7.90;7.10;;;;;;;11.90;98.28;99969.25;4878502;29;20032;-81
2021/10/30 11:07:58;;;;;;;7.38;6.68;;;;;;;11.90;98.43;99964.03;4870368;29;20357;-80
2021/10/30 11:10:26;;;;;;;12.18;7.40;;;;;;;11.90;98.55;99964.84;4838216;29;20334;-81
2021/10/30 11:13:07;;;;;;;8.52;6.95;;;;;;;11.90;98.38;99959.59;4871482;29;20352;-81
2021/10/30 11:15:43;;;;;;;7.35;6.72;;;;;;;11.91;98.44;99955.19;4833495;29;20057;-81
2021/10/30 11:18:23;;;;;;;7.80;7.00;;;;;;;11.92;98.39;99956.06;4878138;29;20344;-81